sensor_id;sensor_type;location;lat;lon;timestamp;P1;durP1;ratioP1;P2;durP2;ratioP2
19257;SDS011;9763;48.780;9.212;2022-11-30T00:02:06;8.77;;;7.47;;
19257;SDS011;9763;48.780;9.212;2022-11-30T00:05:30;8.87;;;5.90;;
19257;SDS011;9763;48.780;9.212;2022-11-30T00:08:54;7.47;;;6.43;;
19257;SDS011;9763;48.780;9.212;2022-11-30T00:12:19;8.20;;;6.60;;
19257;SDS011;9763;48.780;9.212;2022-11-30T00:15:44;8.60;;;6.70;;
19257;SDS011;9763;48.780;9.212;2022-11-30T00:19:08;8.00;;;5.80;;
19257;SDS011;9763;48.780;9.212;2022-11-30T00:22:31;9.53;;;7.50;;
19257;SDS011;9763;48.780;9.212;2022-11-30T00:25:56;7.43;;;6.70;;
19257;SDS011;9763;48.780;9.212;2022-11-30T00:29:23;10.10;;;7.30;;
19257;SDS011;9763;48.780;9.212;2022-11-30T00:32:48;8.03;;;6.87;;
19257;SDS011;9763;48.780;9.212;2022-11-30T00:36:12;10.60;;;7.00;;
19257;SDS011;9763;48.780;9.212;2022-11-30T00:39:38;7.77;;;6.97;;
19257;SDS011;9763;48.780;9.212;2022-11-30T00:43:02;8.10;;;7.10;;
19257;SDS011;9763;48.780;9.212;2022-11-30T00:46:25;9.73;;;6.80;;
19257;SDS011;9763;48.780;9.212;2022-11-30T00:49:51;9.30;;;7.37;;
19257;SDS011;9763;48.780;9.212;2022-11-30T00:53:14;8.37;;;6.50;;
19257;SDS011;9763;48.780;9.212;2022-11-30T00:56:39;9.80;;;7.27;;
19257;SDS011;9763;48.780;9.212;2022-11-30T01:00:03;8.80;;;7.33;;
19257;SDS011;9763;48.780;9.212;2022-11-30T01:03:28;10.73;;;7.83;;
19257;SDS011;9763;48.780;9.212;2022-11-30T01:06:53;8.77;;;6.87;;
19257;SDS011;9763;48.780;9.212;2022-11-30T01:10:17;7.40;;;6.33;;
19257;SDS011;9763;48.780;9.212;2022-11-30T01:13:41;6.73;;;6.03;;
19257;SDS011;9763;48.780;9.212;2022-11-30T01:17:05;7.73;;;6.17;;
19257;SDS011;9763;48.780;9.212;2022-11-30T01:20:29;8.70;;;7.50;;
19257;SDS011;9763;48.780;9.212;2022-11-30T01:23:54;8.40;;;7.30;;
19257;SDS011;9763;48.780;9.212;2022-11-30T01:27:18;6.87;;;6.20;;
19257;SDS011;9763;48.780;9.212;2022-11-30T01:30:42;10.00;;;7.43;;
19257;SDS011;9763;48.780;9.212;2022-11-30T01:34:06;8.27;;;6.53;;
19257;SDS011;9763;48.780;9.212;2022-11-30T01:37:29;7.83;;;7.03;;
19257;SDS011;9763;48.780;9.212;2022-11-30T01:40:54;8.23;;;6.80;;
19257;SDS011;9763;48.780;9.212;2022-11-30T01:48:09;7.27;;;6.57;;
19257;SDS011;9763;48.780;9.212;2022-11-30T01:51:35;7.90;;;6.50;;
19257;SDS011;9763;48.780;9.212;2022-11-30T01:55:04;7.30;;;6.30;;
19257;SDS011;9763;48.780;9.212;2022-11-30T01:58:36;8.47;;;6.70;;
19257;SDS011;9763;48.780;9.212;2022-11-30T02:02:00;9.60;;;7.30;;
19257;SDS011;9763;48.780;9.212;2022-11-30T02:05:24;7.23;;;6.37;;
19257;SDS011;9763;48.780;9.212;2022-11-30T02:08:49;6.63;;;5.60;;
19257;SDS011;9763;48.780;9.212;2022-11-30T02:12:16;7.20;;;6.50;;
19257;SDS011;9763;48.780;9.212;2022-11-30T02:15:54;8.27;;;7.47;;
19257;SDS011;9763;48.780;9.212;2022-11-30T02:23:38;7.93;;;5.73;;
19257;SDS011;9763;48.780;9.212;2022-11-30T02:27:30;8.53;;;6.47;;
19257;SDS011;9763;48.780;9.212;2022-11-30T02:31:19;6.83;;;6.13;;
19257;SDS011;9763;48.780;9.212;2022-11-30T02:34:49;7.20;;;6.07;;
19257;SDS011;9763;48.780;9.212;2022-11-30T02:38:17;6.10;;;5.50;;
19257;SDS011;9763;48.780;9.212;2022-11-30T02:41:44;7.80;;;6.77;;
19257;SDS011;9763;48.780;9.212;2022-11-30T02:45:08;7.63;;;6.20;;
19257;SDS011;9763;48.780;9.212;2022-11-30T02:48:37;7.30;;;6.27;;
19257;SDS011;9763;48.780;9.212;2022-11-30T02:52:08;7.27;;;6.47;;
19257;SDS011;9763;48.780;9.212;2022-11-30T02:55:33;6.60;;;5.90;;
19257;SDS011;9763;48.780;9.212;2022-11-30T02:58:57;8.40;;;7.50;;
19257;SDS011;9763;48.780;9.212;2022-11-30T03:02:22;7.83;;;6.90;;
19257;SDS011;9763;48.780;9.212;2022-11-30T03:05:47;7.93;;;6.30;;
19257;SDS011;9763;48.780;9.212;2022-11-30T03:09:11;6.97;;;6.10;;
19257;SDS011;9763;48.780;9.212;2022-11-30T03:12:35;7.67;;;6.87;;
19257;SDS011;9763;48.780;9.212;2022-11-30T03:16:04;7.50;;;6.70;;
19257;SDS011;9763;48.780;9.212;2022-11-30T03:19:28;6.23;;;5.60;;
19257;SDS011;9763;48.780;9.212;2022-11-30T03:22:53;7.23;;;6.53;;
19257;SDS011;9763;48.780;9.212;2022-11-30T03:26:21;5.80;;;5.07;;
19257;SDS011;9763;48.780;9.212;2022-11-30T03:29:45;6.53;;;5.20;;
19257;SDS011;9763;48.780;9.212;2022-11-30T03:33:08;6.43;;;5.80;;
19257;SDS011;9763;48.780;9.212;2022-11-30T03:36:32;6.10;;;5.10;;
19257;SDS011;9763;48.780;9.212;2022-11-30T03:39:58;5.90;;;5.30;;
19257;SDS011;9763;48.780;9.212;2022-11-30T03:43:21;6.30;;;5.23;;
19257;SDS011;9763;48.780;9.212;2022-11-30T03:46:45;6.80;;;5.70;;
19257;SDS011;9763;48.780;9.212;2022-11-30T03:50:09;7.40;;;5.17;;
19257;SDS011;9763;48.780;9.212;2022-11-30T03:53:33;8.60;;;5.70;;
19257;SDS011;9763;48.780;9.212;2022-11-30T03:56:58;7.47;;;5.57;;
19257;SDS011;9763;48.780;9.212;2022-11-30T04:00:22;6.00;;;5.40;;
19257;SDS011;9763;48.780;9.212;2022-11-30T04:03:46;6.27;;;5.40;;
19257;SDS011;9763;48.780;9.212;2022-11-30T04:07:10;6.90;;;6.10;;
19257;SDS011;9763;48.780;9.212;2022-11-30T04:10:34;6.50;;;5.50;;
19257;SDS011;9763;48.780;9.212;2022-11-30T04:13:59;6.20;;;5.60;;
19257;SDS011;9763;48.780;9.212;2022-11-30T04:17:23;7.27;;;5.93;;
19257;SDS011;9763;48.780;9.212;2022-11-30T04:20:48;7.03;;;5.03;;
19257;SDS011;9763;48.780;9.212;2022-11-30T04:24:13;4.53;;;4.13;;
19257;SDS011;9763;48.780;9.212;2022-11-30T04:27:37;5.23;;;4.50;;
19257;SDS011;9763;48.780;9.212;2022-11-30T04:31:02;6.93;;;4.67;;
19257;SDS011;9763;48.780;9.212;2022-11-30T04:34:26;5.80;;;4.60;;
19257;SDS011;9763;48.780;9.212;2022-11-30T04:37:52;7.27;;;5.60;;
19257;SDS011;9763;48.780;9.212;2022-11-30T04:41:16;5.53;;;4.93;;
19257;SDS011;9763;48.780;9.212;2022-11-30T04:44:39;6.67;;;6.07;;
19257;SDS011;9763;48.780;9.212;2022-11-30T04:48:05;7.00;;;5.30;;
19257;SDS011;9763;48.780;9.212;2022-11-30T04:51:30;5.73;;;5.23;;
19257;SDS011;9763;48.780;9.212;2022-11-30T04:54:53;5.47;;;4.97;;
19257;SDS011;9763;48.780;9.212;2022-11-30T04:58:17;5.23;;;4.70;;
19257;SDS011;9763;48.780;9.212;2022-11-30T05:01:41;4.00;;;3.60;;
19257;SDS011;9763;48.780;9.212;2022-11-30T05:05:07;5.60;;;4.53;;
19257;SDS011;9763;48.780;9.212;2022-11-30T05:08:31;6.30;;;5.07;;
19257;SDS011;9763;48.780;9.212;2022-11-30T05:11:55;6.10;;;4.70;;
19257;SDS011;9763;48.780;9.212;2022-11-30T05:15:19;5.20;;;4.80;;
19257;SDS011;9763;48.780;9.212;2022-11-30T05:18:42;4.57;;;4.17;;
19257;SDS011;9763;48.780;9.212;2022-11-30T05:22:08;4.73;;;4.10;;
19257;SDS011;9763;48.780;9.212;2022-11-30T05:25:32;6.50;;;4.50;;
19257;SDS011;9763;48.780;9.212;2022-11-30T05:28:55;4.90;;;4.20;;
19257;SDS011;9763;48.780;9.212;2022-11-30T05:32:19;4.97;;;4.47;;
19257;SDS011;9763;48.780;9.212;2022-11-30T05:35:42;4.70;;;3.83;;
19257;SDS011;9763;48.780;9.212;2022-11-30T05:39:07;4.93;;;4.03;;
19257;SDS011;9763;48.780;9.212;2022-11-30T05:42:31;4.97;;;4.57;;
19257;SDS011;9763;48.780;9.212;2022-11-30T05:45:57;5.40;;;4.60;;
19257;SDS011;9763;48.780;9.212;2022-11-30T05:49:22;4.17;;;3.77;;
19257;SDS011;9763;48.780;9.212;2022-11-30T05:52:45;6.30;;;4.57;;
19257;SDS011;9763;48.780;9.212;2022-11-30T05:56:11;5.17;;;4.50;;
19257;SDS011;9763;48.780;9.212;2022-11-30T05:59:37;4.60;;;4.20;;
19257;SDS011;9763;48.780;9.212;2022-11-30T06:03:01;5.87;;;4.03;;
19257;SDS011;9763;48.780;9.212;2022-11-30T06:06:25;4.00;;;3.63;;
19257;SDS011;9763;48.780;9.212;2022-11-30T06:09:49;4.70;;;4.30;;
19257;SDS011;9763;48.780;9.212;2022-11-30T06:13:14;5.07;;;4.57;;
19257;SDS011;9763;48.780;9.212;2022-11-30T06:16:38;6.47;;;4.30;;
19257;SDS011;9763;48.780;9.212;2022-11-30T06:20:02;5.03;;;4.50;;
19257;SDS011;9763;48.780;9.212;2022-11-30T06:23:27;4.80;;;4.30;;
19257;SDS011;9763;48.780;9.212;2022-11-30T06:26:51;4.63;;;4.23;;
19257;SDS011;9763;48.780;9.212;2022-11-30T06:30:16;5.37;;;4.80;;
19257;SDS011;9763;48.780;9.212;2022-11-30T06:33:40;4.43;;;4.03;;
19257;SDS011;9763;48.780;9.212;2022-11-30T06:37:04;5.13;;;4.63;;
19257;SDS011;9763;48.780;9.212;2022-11-30T06:40:28;10.03;;;4.27;;
19257;SDS011;9763;48.780;9.212;2022-11-30T06:43:52;4.23;;;3.83;;
19257;SDS011;9763;48.780;9.212;2022-11-30T06:47:17;4.27;;;3.70;;
19257;SDS011;9763;48.780;9.212;2022-11-30T06:50:41;5.03;;;3.93;;
19257;SDS011;9763;48.780;9.212;2022-11-30T06:54:10;5.03;;;4.23;;
19257;SDS011;9763;48.780;9.212;2022-11-30T06:57:34;4.63;;;4.13;;
19257;SDS011;9763;48.780;9.212;2022-11-30T07:00:57;4.27;;;3.87;;
19257;SDS011;9763;48.780;9.212;2022-11-30T07:04:23;4.90;;;4.30;;
19257;SDS011;9763;48.780;9.212;2022-11-30T07:07:46;4.30;;;4.00;;
19257;SDS011;9763;48.780;9.212;2022-11-30T07:11:10;4.77;;;4.10;;
19257;SDS011;9763;48.780;9.212;2022-11-30T07:14:35;4.60;;;4.20;;
19257;SDS011;9763;48.780;9.212;2022-11-30T07:17:59;4.20;;;3.70;;
19257;SDS011;9763;48.780;9.212;2022-11-30T07:21:25;4.90;;;4.40;;
19257;SDS011;9763;48.780;9.212;2022-11-30T07:24:48;4.77;;;4.27;;
19257;SDS011;9763;48.780;9.212;2022-11-30T07:28:29;4.03;;;3.53;;
19257;SDS011;9763;48.780;9.212;2022-11-30T07:31:54;4.57;;;4.13;;
19257;SDS011;9763;48.780;9.212;2022-11-30T07:35:17;5.30;;;4.80;;
19257;SDS011;9763;48.780;9.212;2022-11-30T07:38:42;5.13;;;4.23;;
19257;SDS011;9763;48.780;9.212;2022-11-30T07:42:07;5.40;;;4.80;;
19257;SDS011;9763;48.780;9.212;2022-11-30T07:45:30;4.90;;;4.40;;
19257;SDS011;9763;48.780;9.212;2022-11-30T07:48:54;4.83;;;4.03;;
19257;SDS011;9763;48.780;9.212;2022-11-30T07:52:17;5.67;;;5.00;;
19257;SDS011;9763;48.780;9.212;2022-11-30T07:55:42;4.60;;;4.07;;
19257;SDS011;9763;48.780;9.212;2022-11-30T07:59:06;5.60;;;4.87;;
19257;SDS011;9763;48.780;9.212;2022-11-30T08:02:31;5.70;;;4.50;;
19257;SDS011;9763;48.780;9.212;2022-11-30T08:05:58;6.67;;;4.63;;
19257;SDS011;9763;48.780;9.212;2022-11-30T08:09:26;5.15;;;4.65;;
19257;SDS011;9763;48.780;9.212;2022-11-30T08:12:51;5.43;;;4.50;;
19257;SDS011;9763;48.780;9.212;2022-11-30T08:16:16;5.63;;;5.00;;
19257;SDS011;9763;48.780;9.212;2022-11-30T08:19:42;5.97;;;5.20;;
19257;SDS011;9763;48.780;9.212;2022-11-30T08:23:05;5.67;;;4.43;;
19257;SDS011;9763;48.780;9.212;2022-11-30T08:26:29;7.20;;;5.77;;
19257;SDS011;9763;48.780;9.212;2022-11-30T08:29:57;6.17;;;5.57;;
19257;SDS011;9763;48.780;9.212;2022-11-30T08:33:20;7.20;;;5.60;;
19257;SDS011;9763;48.780;9.212;2022-11-30T08:36:44;7.77;;;6.40;;
19257;SDS011;9763;48.780;9.212;2022-11-30T08:40:12;7.23;;;5.50;;
19257;SDS011;9763;48.780;9.212;2022-11-30T08:43:36;7.37;;;5.40;;
19257;SDS011;9763;48.780;9.212;2022-11-30T08:47:01;9.17;;;5.47;;
19257;SDS011;9763;48.780;9.212;2022-11-30T08:50:24;5.70;;;5.10;;
19257;SDS011;9763;48.780;9.212;2022-11-30T08:53:48;8.33;;;5.20;;
19257;SDS011;9763;48.780;9.212;2022-11-30T08:57:12;6.10;;;4.97;;
19257;SDS011;9763;48.780;9.212;2022-11-30T09:00:35;6.90;;;5.87;;
19257;SDS011;9763;48.780;9.212;2022-11-30T09:04:00;6.37;;;5.67;;
19257;SDS011;9763;48.780;9.212;2022-11-30T09:07:24;7.03;;;5.70;;
19257;SDS011;9763;48.780;9.212;2022-11-30T09:10:48;6.30;;;5.20;;
19257;SDS011;9763;48.780;9.212;2022-11-30T09:14:12;7.73;;;6.73;;
19257;SDS011;9763;48.780;9.212;2022-11-30T09:17:36;10.30;;;7.73;;
19257;SDS011;9763;48.780;9.212;2022-11-30T09:21:01;9.90;;;8.10;;
19257;SDS011;9763;48.780;9.212;2022-11-30T09:24:28;7.03;;;6.30;;
19257;SDS011;9763;48.780;9.212;2022-11-30T09:27:52;10.83;;;7.03;;
19257;SDS011;9763;48.780;9.212;2022-11-30T09:31:17;8.93;;;7.00;;
19257;SDS011;9763;48.780;9.212;2022-11-30T09:34:43;6.87;;;6.13;;
19257;SDS011;9763;48.780;9.212;2022-11-30T09:38:08;9.33;;;6.53;;
19257;SDS011;9763;48.780;9.212;2022-11-30T09:41:36;6.80;;;5.83;;
19257;SDS011;9763;48.780;9.212;2022-11-30T09:45:34;7.03;;;6.07;;
19257;SDS011;9763;48.780;9.212;2022-11-30T09:49:00;6.90;;;5.87;;
19257;SDS011;9763;48.780;9.212;2022-11-30T09:52:28;6.67;;;5.97;;
19257;SDS011;9763;48.780;9.212;2022-11-30T09:56:00;6.53;;;5.50;;
19257;SDS011;9763;48.780;9.212;2022-11-30T09:59:28;7.43;;;5.57;;
19257;SDS011;9763;48.780;9.212;2022-11-30T10:03:00;7.10;;;4.90;;
19257;SDS011;9763;48.780;9.212;2022-11-30T10:06:27;8.07;;;6.20;;
19257;SDS011;9763;48.780;9.212;2022-11-30T10:10:03;6.50;;;5.67;;
19257;SDS011;9763;48.780;9.212;2022-11-30T10:13:59;6.00;;;5.10;;
19257;SDS011;9763;48.780;9.212;2022-11-30T10:17:53;5.17;;;4.50;;
19257;SDS011;9763;48.780;9.212;2022-11-30T10:21:26;6.17;;;5.23;;
19257;SDS011;9763;48.780;9.212;2022-11-30T10:25:14;6.13;;;5.33;;
19257;SDS011;9763;48.780;9.212;2022-11-30T10:28:48;6.73;;;5.50;;
19257;SDS011;9763;48.780;9.212;2022-11-30T10:32:17;7.43;;;5.60;;
19257;SDS011;9763;48.780;9.212;2022-11-30T10:35:44;7.40;;;6.13;;
19257;SDS011;9763;48.780;9.212;2022-11-30T10:39:13;6.80;;;5.83;;
19257;SDS011;9763;48.780;9.212;2022-11-30T10:42:43;6.50;;;5.03;;
19257;SDS011;9763;48.780;9.212;2022-11-30T10:46:17;5.37;;;4.47;;
19257;SDS011;9763;48.780;9.212;2022-11-30T10:49:46;6.67;;;5.50;;
19257;SDS011;9763;48.780;9.212;2022-11-30T10:53:13;8.63;;;6.97;;
19257;SDS011;9763;48.780;9.212;2022-11-30T10:56:37;7.37;;;5.60;;
19257;SDS011;9763;48.780;9.212;2022-11-30T11:00:02;8.03;;;6.43;;
19257;SDS011;9763;48.780;9.212;2022-11-30T11:03:28;8.80;;;6.90;;
19257;SDS011;9763;48.780;9.212;2022-11-30T11:06:54;5.93;;;5.30;;
19257;SDS011;9763;48.780;9.212;2022-11-30T11:10:29;5.87;;;4.83;;
19257;SDS011;9763;48.780;9.212;2022-11-30T11:14:06;6.77;;;5.80;;
19257;SDS011;9763;48.780;9.212;2022-11-30T11:17:42;6.17;;;5.30;;
19257;SDS011;9763;48.780;9.212;2022-11-30T11:21:06;6.17;;;5.37;;
19257;SDS011;9763;48.780;9.212;2022-11-30T11:24:42;7.07;;;6.20;;
19257;SDS011;9763;48.780;9.212;2022-11-30T11:28:11;6.03;;;5.43;;
19257;SDS011;9763;48.780;9.212;2022-11-30T11:31:41;5.33;;;4.83;;
19257;SDS011;9763;48.780;9.212;2022-11-30T11:35:22;4.60;;;4.20;;
19257;SDS011;9763;48.780;9.212;2022-11-30T11:38:59;4.10;;;3.70;;
19257;SDS011;9763;48.780;9.212;2022-11-30T11:42:25;3.83;;;3.40;;
19257;SDS011;9763;48.780;9.212;2022-11-30T11:45:52;4.33;;;3.93;;
19257;SDS011;9763;48.780;9.212;2022-11-30T11:49:20;4.17;;;3.67;;
19257;SDS011;9763;48.780;9.212;2022-11-30T11:52:47;4.77;;;4.33;;
19257;SDS011;9763;48.780;9.212;2022-11-30T11:56:14;4.30;;;3.90;;
19257;SDS011;9763;48.780;9.212;2022-11-30T11:59:48;5.70;;;4.30;;
19257;SDS011;9763;48.780;9.212;2022-11-30T12:03:21;4.70;;;4.03;;
19257;SDS011;9763;48.780;9.212;2022-11-30T12:06:55;4.50;;;4.03;;
19257;SDS011;9763;48.780;9.212;2022-11-30T12:10:25;4.03;;;3.63;;
19257;SDS011;9763;48.780;9.212;2022-11-30T12:14:14;4.33;;;3.50;;
19257;SDS011;9763;48.780;9.212;2022-11-30T12:17:45;4.40;;;3.77;;
19257;SDS011;9763;48.780;9.212;2022-11-30T12:21:24;5.40;;;4.60;;
19257;SDS011;9763;48.780;9.212;2022-11-30T12:25:12;5.27;;;4.57;;
19257;SDS011;9763;48.780;9.212;2022-11-30T12:28:49;5.53;;;4.50;;
19257;SDS011;9763;48.780;9.212;2022-11-30T12:36:35;6.60;;;4.30;;
19257;SDS011;9763;48.780;9.212;2022-11-30T12:40:18;5.27;;;4.77;;
19257;SDS011;9763;48.780;9.212;2022-11-30T12:43:56;5.20;;;4.00;;
19257;SDS011;9763;48.780;9.212;2022-11-30T12:47:45;5.43;;;4.70;;
19257;SDS011;9763;48.780;9.212;2022-11-30T12:51:23;4.80;;;4.00;;
19257;SDS011;9763;48.780;9.212;2022-11-30T12:54:55;4.10;;;3.70;;
19257;SDS011;9763;48.780;9.212;2022-11-30T12:58:31;4.20;;;3.80;;
19257;SDS011;9763;48.780;9.212;2022-11-30T13:02:13;5.07;;;3.97;;
19257;SDS011;9763;48.780;9.212;2022-11-30T13:05:59;4.83;;;4.10;;
19257;SDS011;9763;48.780;9.212;2022-11-30T13:09:32;4.67;;;3.87;;
19257;SDS011;9763;48.780;9.212;2022-11-30T13:13:03;4.23;;;3.33;;
19257;SDS011;9763;48.780;9.212;2022-11-30T13:16:35;5.87;;;4.37;;
19257;SDS011;9763;48.780;9.212;2022-11-30T13:20:02;5.30;;;4.70;;
19257;SDS011;9763;48.780;9.212;2022-11-30T13:23:37;5.70;;;4.50;;
19257;SDS011;9763;48.780;9.212;2022-11-30T13:27:12;5.43;;;3.90;;
19257;SDS011;9763;48.780;9.212;2022-11-30T13:30:46;5.50;;;4.50;;
19257;SDS011;9763;48.780;9.212;2022-11-30T13:34:21;5.80;;;4.43;;
19257;SDS011;9763;48.780;9.212;2022-11-30T13:37:59;4.90;;;4.00;;
19257;SDS011;9763;48.780;9.212;2022-11-30T13:41:44;4.50;;;3.80;;
19257;SDS011;9763;48.780;9.212;2022-11-30T13:45:17;4.90;;;3.97;;
19257;SDS011;9763;48.780;9.212;2022-11-30T13:49:07;5.33;;;4.10;;
19257;SDS011;9763;48.780;9.212;2022-11-30T13:56:54;5.80;;;4.40;;
19257;SDS011;9763;48.780;9.212;2022-11-30T14:04:29;4.33;;;3.80;;
19257;SDS011;9763;48.780;9.212;2022-11-30T14:08:28;4.50;;;3.60;;
19257;SDS011;9763;48.780;9.212;2022-11-30T14:11:57;4.60;;;4.03;;
19257;SDS011;9763;48.780;9.212;2022-11-30T14:15:52;4.13;;;3.47;;
19257;SDS011;9763;48.780;9.212;2022-11-30T14:19:18;5.00;;;3.77;;
19257;SDS011;9763;48.780;9.212;2022-11-30T14:22:42;3.87;;;3.57;;
19257;SDS011;9763;48.780;9.212;2022-11-30T14:26:06;4.60;;;4.00;;
19257;SDS011;9763;48.780;9.212;2022-11-30T14:29:34;4.00;;;3.50;;
19257;SDS011;9763;48.780;9.212;2022-11-30T14:33:03;3.97;;;3.27;;
19257;SDS011;9763;48.780;9.212;2022-11-30T14:36:42;4.03;;;3.63;;
19257;SDS011;9763;48.780;9.212;2022-11-30T14:40:14;3.90;;;3.50;;
19257;SDS011;9763;48.780;9.212;2022-11-30T14:43:55;3.67;;;3.20;;
19257;SDS011;9763;48.780;9.212;2022-11-30T14:47:27;3.60;;;3.30;;
19257;SDS011;9763;48.780;9.212;2022-11-30T14:50:55;3.93;;;3.53;;
19257;SDS011;9763;48.780;9.212;2022-11-30T14:54:25;4.53;;;4.00;;
19257;SDS011;9763;48.780;9.212;2022-11-30T14:58:12;5.70;;;3.70;;
19257;SDS011;9763;48.780;9.212;2022-11-30T15:01:46;3.93;;;3.60;;
19257;SDS011;9763;48.780;9.212;2022-11-30T15:05:12;4.30;;;3.70;;
19257;SDS011;9763;48.780;9.212;2022-11-30T15:08:41;4.47;;;4.07;;
19257;SDS011;9763;48.780;9.212;2022-11-30T15:12:14;4.17;;;3.43;;
19257;SDS011;9763;48.780;9.212;2022-11-30T15:15:48;4.60;;;4.10;;
19257;SDS011;9763;48.780;9.212;2022-11-30T15:19:17;5.10;;;4.60;;
19257;SDS011;9763;48.780;9.212;2022-11-30T15:22:44;6.03;;;4.50;;
19257;SDS011;9763;48.780;9.212;2022-11-30T15:26:10;6.27;;;4.90;;
19257;SDS011;9763;48.780;9.212;2022-11-30T15:29:41;6.20;;;5.00;;
19257;SDS011;9763;48.780;9.212;2022-11-30T15:33:13;4.90;;;4.40;;
19257;SDS011;9763;48.780;9.212;2022-11-30T15:36:41;6.10;;;4.23;;
19257;SDS011;9763;48.780;9.212;2022-11-30T15:40:06;4.57;;;4.00;;
19257;SDS011;9763;48.780;9.212;2022-11-30T15:43:37;4.33;;;3.70;;
19257;SDS011;9763;48.780;9.212;2022-11-30T15:47:02;5.33;;;4.83;;
19257;SDS011;9763;48.780;9.212;2022-11-30T15:50:36;6.17;;;4.13;;
19257;SDS011;9763;48.780;9.212;2022-11-30T15:54:02;6.27;;;4.67;;
19257;SDS011;9763;48.780;9.212;2022-11-30T15:57:26;6.17;;;4.87;;
19257;SDS011;9763;48.780;9.212;2022-11-30T16:01:21;5.87;;;4.17;;
19257;SDS011;9763;48.780;9.212;2022-11-30T16:05:02;5.13;;;4.40;;
19257;SDS011;9763;48.780;9.212;2022-11-30T16:08:46;5.37;;;4.57;;
19257;SDS011;9763;48.780;9.212;2022-11-30T16:12:13;5.13;;;4.63;;
19257;SDS011;9763;48.780;9.212;2022-11-30T16:15:48;5.43;;;4.57;;
19257;SDS011;9763;48.780;9.212;2022-11-30T16:19:15;5.67;;;4.57;;
19257;SDS011;9763;48.780;9.212;2022-11-30T16:22:39;6.90;;;5.00;;
19257;SDS011;9763;48.780;9.212;2022-11-30T16:26:04;6.00;;;4.40;;
19257;SDS011;9763;48.780;9.212;2022-11-30T16:29:53;6.63;;;4.90;;
19257;SDS011;9763;48.780;9.212;2022-11-30T16:33:18;18.92;;;15.55;;
19257;SDS011;9763;48.780;9.212;2022-11-30T16:36:45;12.13;;;9.03;;
19257;SDS011;9763;48.780;9.212;2022-11-30T16:40:09;8.40;;;6.90;;
19257;SDS011;9763;48.780;9.212;2022-11-30T16:43:34;8.90;;;6.43;;
19257;SDS011;9763;48.780;9.212;2022-11-30T16:47:01;6.90;;;5.57;;
19257;SDS011;9763;48.780;9.212;2022-11-30T16:50:25;6.20;;;5.17;;
19257;SDS011;9763;48.780;9.212;2022-11-30T16:53:50;5.43;;;4.87;;
19257;SDS011;9763;48.780;9.212;2022-11-30T16:57:14;5.70;;;4.43;;
19257;SDS011;9763;48.780;9.212;2022-11-30T17:00:38;7.57;;;5.00;;
19257;SDS011;9763;48.780;9.212;2022-11-30T17:04:04;7.30;;;5.30;;
19257;SDS011;9763;48.780;9.212;2022-11-30T17:07:33;5.70;;;4.30;;
19257;SDS011;9763;48.780;9.212;2022-11-30T17:10:59;5.60;;;4.20;;
19257;SDS011;9763;48.780;9.212;2022-11-30T17:14:23;7.20;;;4.33;;
19257;SDS011;9763;48.780;9.212;2022-11-30T17:17:47;4.07;;;3.67;;
19257;SDS011;9763;48.780;9.212;2022-11-30T17:21:12;5.43;;;3.90;;
19257;SDS011;9763;48.780;9.212;2022-11-30T17:24:38;5.40;;;4.20;;
19257;SDS011;9763;48.780;9.212;2022-11-30T17:28:03;6.20;;;4.60;;
19257;SDS011;9763;48.780;9.212;2022-11-30T17:31:27;7.17;;;5.30;;
19257;SDS011;9763;48.780;9.212;2022-11-30T17:34:51;8.87;;;6.73;;
19257;SDS011;9763;48.780;9.212;2022-11-30T17:38:14;7.70;;;5.90;;
19257;SDS011;9763;48.780;9.212;2022-11-30T17:41:38;6.83;;;5.63;;
19257;SDS011;9763;48.780;9.212;2022-11-30T17:45:03;5.70;;;4.53;;
19257;SDS011;9763;48.780;9.212;2022-11-30T17:48:28;5.03;;;4.40;;
19257;SDS011;9763;48.780;9.212;2022-11-30T17:51:52;5.10;;;4.23;;
19257;SDS011;9763;48.780;9.212;2022-11-30T17:55:16;6.00;;;4.80;;
19257;SDS011;9763;48.780;9.212;2022-11-30T17:58:40;8.13;;;4.67;;
19257;SDS011;9763;48.780;9.212;2022-11-30T18:02:07;5.10;;;4.60;;
19257;SDS011;9763;48.780;9.212;2022-11-30T18:05:33;4.43;;;3.93;;
19257;SDS011;9763;48.780;9.212;2022-11-30T18:08:56;8.23;;;4.47;;
19257;SDS011;9763;48.780;9.212;2022-11-30T18:12:20;4.30;;;3.90;;
19257;SDS011;9763;48.780;9.212;2022-11-30T18:15:44;4.40;;;3.97;;
19257;SDS011;9763;48.780;9.212;2022-11-30T18:19:09;5.10;;;4.23;;
19257;SDS011;9763;48.780;9.212;2022-11-30T18:22:35;4.67;;;4.20;;
19257;SDS011;9763;48.780;9.212;2022-11-30T18:25:58;5.03;;;4.53;;
19257;SDS011;9763;48.780;9.212;2022-11-30T18:29:23;4.43;;;4.03;;
19257;SDS011;9763;48.780;9.212;2022-11-30T18:32:47;4.43;;;4.00;;
19257;SDS011;9763;48.780;9.212;2022-11-30T18:36:12;4.07;;;3.23;;
19257;SDS011;9763;48.780;9.212;2022-11-30T18:39:36;5.57;;;4.57;;
19257;SDS011;9763;48.780;9.212;2022-11-30T18:42:59;6.70;;;4.60;;
19257;SDS011;9763;48.780;9.212;2022-11-30T18:46:24;4.53;;;3.80;;
19257;SDS011;9763;48.780;9.212;2022-11-30T18:49:48;6.27;;;3.90;;
19257;SDS011;9763;48.780;9.212;2022-11-30T18:53:14;4.40;;;4.00;;
19257;SDS011;9763;48.780;9.212;2022-11-30T18:56:39;5.20;;;4.67;;
19257;SDS011;9763;48.780;9.212;2022-11-30T19:00:03;6.27;;;5.10;;
19257;SDS011;9763;48.780;9.212;2022-11-30T19:03:28;4.50;;;4.10;;
19257;SDS011;9763;48.780;9.212;2022-11-30T19:06:51;5.73;;;5.17;;
19257;SDS011;9763;48.780;9.212;2022-11-30T19:10:16;5.57;;;4.73;;
19257;SDS011;9763;48.780;9.212;2022-11-30T19:13:40;5.10;;;4.10;;
19257;SDS011;9763;48.780;9.212;2022-11-30T19:17:03;6.23;;;4.60;;
19257;SDS011;9763;48.780;9.212;2022-11-30T19:20:27;5.77;;;4.80;;
19257;SDS011;9763;48.780;9.212;2022-11-30T19:23:51;5.10;;;4.60;;
19257;SDS011;9763;48.780;9.212;2022-11-30T19:27:16;5.73;;;3.80;;
19257;SDS011;9763;48.780;9.212;2022-11-30T19:30:39;7.33;;;5.53;;
19257;SDS011;9763;48.780;9.212;2022-11-30T19:34:03;5.87;;;4.77;;
19257;SDS011;9763;48.780;9.212;2022-11-30T19:37:33;7.37;;;6.00;;
19257;SDS011;9763;48.780;9.212;2022-11-30T19:40:57;5.10;;;4.30;;
19257;SDS011;9763;48.780;9.212;2022-11-30T19:44:22;8.83;;;5.87;;
19257;SDS011;9763;48.780;9.212;2022-11-30T19:47:46;5.23;;;4.20;;
19257;SDS011;9763;48.780;9.212;2022-11-30T19:51:10;7.07;;;5.80;;
19257;SDS011;9763;48.780;9.212;2022-11-30T19:54:39;6.73;;;5.00;;
19257;SDS011;9763;48.780;9.212;2022-11-30T19:58:03;6.60;;;5.00;;
19257;SDS011;9763;48.780;9.212;2022-11-30T20:01:28;6.20;;;5.03;;
19257;SDS011;9763;48.780;9.212;2022-11-30T20:04:52;5.67;;;4.00;;
19257;SDS011;9763;48.780;9.212;2022-11-30T20:08:16;7.33;;;5.20;;
19257;SDS011;9763;48.780;9.212;2022-11-30T20:11:39;6.23;;;4.20;;
19257;SDS011;9763;48.780;9.212;2022-11-30T20:15:03;6.47;;;4.43;;
19257;SDS011;9763;48.780;9.212;2022-11-30T20:18:29;6.70;;;3.70;;
19257;SDS011;9763;48.780;9.212;2022-11-30T20:21:52;5.80;;;4.40;;
19257;SDS011;9763;48.780;9.212;2022-11-30T20:25:16;7.17;;;4.07;;
19257;SDS011;9763;48.780;9.212;2022-11-30T20:28:42;5.30;;;3.80;;
19257;SDS011;9763;48.780;9.212;2022-11-30T20:32:06;4.27;;;3.60;;
19257;SDS011;9763;48.780;9.212;2022-11-30T20:35:31;5.90;;;4.10;;
19257;SDS011;9763;48.780;9.212;2022-11-30T20:38:57;5.23;;;4.20;;
19257;SDS011;9763;48.780;9.212;2022-11-30T20:42:21;6.27;;;3.67;;
19257;SDS011;9763;48.780;9.212;2022-11-30T20:45:44;3.77;;;3.37;;
19257;SDS011;9763;48.780;9.212;2022-11-30T20:49:11;5.40;;;4.23;;
19257;SDS011;9763;48.780;9.212;2022-11-30T20:52:39;4.57;;;3.37;;
19257;SDS011;9763;48.780;9.212;2022-11-30T20:56:03;4.30;;;3.90;;
19257;SDS011;9763;48.780;9.212;2022-11-30T20:59:27;6.37;;;4.43;;
19257;SDS011;9763;48.780;9.212;2022-11-30T21:02:51;6.00;;;3.73;;
19257;SDS011;9763;48.780;9.212;2022-11-30T21:06:14;4.40;;;3.87;;
19257;SDS011;9763;48.780;9.212;2022-11-30T21:09:40;5.57;;;4.57;;
19257;SDS011;9763;48.780;9.212;2022-11-30T21:13:03;4.80;;;3.90;;
19257;SDS011;9763;48.780;9.212;2022-11-30T21:16:27;5.87;;;4.30;;
19257;SDS011;9763;48.780;9.212;2022-11-30T21:19:51;6.00;;;4.20;;
19257;SDS011;9763;48.780;9.212;2022-11-30T21:23:14;6.77;;;3.67;;
19257;SDS011;9763;48.780;9.212;2022-11-30T21:26:46;4.50;;;3.93;;
19257;SDS011;9763;48.780;9.212;2022-11-30T21:30:10;4.57;;;3.50;;